LEPP/PNA METAR and TAF weather

Enter ICAO airport designator
Station Type Date Time Source
LEPP METAR 2019/12/09 00:30 UTC NOAA

LEPP 090030Z AUTO 16002KT 9999 NCD 05/04 Q1025


Station Type Date Time Source
LEPP Decoded METAR 2019/12/09 00:30 UTC NOAA

Pamplona / Noain, Spain (LEPP) 42-46N 001-38W 453M
Dec 08, 2019 - 07:30 PM EST / 2019.12.09 0030 UTC
Wind: from the SSE (160 degrees) at 2 MPH (2 KT):0
Visibility: greater than 7 mile(s):0
Temperature: 41 F (5 C)
Dew Point: 39 F (4 C)
Relative Humidity: 93%
Pressure (altimeter): 30.27 in. Hg (1025 hPa)
ob: LEPP 090030Z AUTO 16002KT 9999 NCD 05/04 Q1025
cycle: 0

Station Type Date Time Source
LEPP TAF 2019/12/08 21:27 UTC NOAA

TAF LEPP 082000Z 0821/0921 VRB05KT 8000 SCT025 TX09/0913Z TN03/0901Z
TEMPO 0821/0824 35010KT PROB40
TEMPO 0823/0903 3000 BCFG
BECMG 0908/0910 30010KT
TEMPO 0910/0916 30015G25KT PROB40
TEMPO 0912/0915 30020G30KT

Example: see airport list